sensor_id;sensor_type;location;lat;lon;timestamp;P1;durP1;ratioP1;P2;durP2;ratioP2
62696;SDS011;48761;42.680;23.312;2022-08-05T00:02:09;6.25;;;5.00;;
62696;SDS011;48761;42.680;23.312;2022-08-05T00:04:35;6.45;;;4.85;;
62696;SDS011;48761;42.680;23.312;2022-08-05T00:07:01;5.43;;;4.93;;
62696;SDS011;48761;42.680;23.312;2022-08-05T00:09:27;5.45;;;4.95;;
62696;SDS011;48761;42.680;23.312;2022-08-05T00:11:53;7.47;;;5.05;;
62696;SDS011;48761;42.680;23.312;2022-08-05T00:14:18;9.27;;;4.80;;
62696;SDS011;48761;42.680;23.312;2022-08-05T00:16:44;7.55;;;5.07;;
62696;SDS011;48761;42.680;23.312;2022-08-05T00:19:10;7.95;;;4.93;;
62696;SDS011;48761;42.680;23.312;2022-08-05T00:21:36;7.70;;;5.20;;
62696;SDS011;48761;42.680;23.312;2022-08-05T00:24:02;6.65;;;5.03;;
62696;SDS011;48761;42.680;23.312;2022-08-05T00:26:29;6.63;;;4.90;;
62696;SDS011;48761;42.680;23.312;2022-08-05T00:28:55;9.10;;;5.30;;
62696;SDS011;48761;42.680;23.312;2022-08-05T00:31:20;8.32;;;4.78;;
62696;SDS011;48761;42.680;23.312;2022-08-05T00:33:46;6.55;;;4.70;;
62696;SDS011;48761;42.680;23.312;2022-08-05T00:36:12;9.10;;;5.22;;
62696;SDS011;48761;42.680;23.312;2022-08-05T00:38:38;6.35;;;5.20;;
62696;SDS011;48761;42.680;23.312;2022-08-05T00:41:04;6.85;;;4.63;;
62696;SDS011;48761;42.680;23.312;2022-08-05T00:43:30;5.82;;;4.75;;
62696;SDS011;48761;42.680;23.312;2022-08-05T00:45:56;7.57;;;5.05;;
62696;SDS011;48761;42.680;23.312;2022-08-05T00:48:22;5.25;;;4.72;;
62696;SDS011;48761;42.680;23.312;2022-08-05T00:50:49;7.45;;;5.30;;
62696;SDS011;48761;42.680;23.312;2022-08-05T00:53:18;8.15;;;5.50;;
62696;SDS011;48761;42.680;23.312;2022-08-05T00:55:46;7.10;;;5.18;;
62696;SDS011;48761;42.680;23.312;2022-08-05T00:58:13;8.52;;;5.22;;
62696;SDS011;48761;42.680;23.312;2022-08-05T01:00:40;7.97;;;5.15;;
62696;SDS011;48761;42.680;23.312;2022-08-05T01:03:06;6.60;;;5.05;;
62696;SDS011;48761;42.680;23.312;2022-08-05T01:05:32;6.80;;;5.00;;
62696;SDS011;48761;42.680;23.312;2022-08-05T01:07:58;6.93;;;5.07;;
62696;SDS011;48761;42.680;23.312;2022-08-05T01:10:34;7.53;;;4.55;;
62696;SDS011;48761;42.680;23.312;2022-08-05T01:13:12;7.60;;;5.47;;
62696;SDS011;48761;42.680;23.312;2022-08-05T01:15:45;9.63;;;6.10;;
62696;SDS011;48761;42.680;23.312;2022-08-05T01:18:21;8.38;;;6.20;;
62696;SDS011;48761;42.680;23.312;2022-08-05T01:20:52;7.18;;;5.72;;
62696;SDS011;48761;42.680;23.312;2022-08-05T01:29:24;9.43;;;5.57;;
62696;SDS011;48761;42.680;23.312;2022-08-05T01:31:58;7.65;;;5.95;;
62696;SDS011;48761;42.680;23.312;2022-08-05T01:37:11;9.20;;;5.55;;
62696;SDS011;48761;42.680;23.312;2022-08-05T01:39:45;7.22;;;5.20;;
62696;SDS011;48761;42.680;23.312;2022-08-05T01:42:15;7.20;;;5.25;;
62696;SDS011;48761;42.680;23.312;2022-08-05T01:44:43;8.07;;;5.53;;
62696;SDS011;48761;42.680;23.312;2022-08-05T01:47:12;9.93;;;5.15;;
62696;SDS011;48761;42.680;23.312;2022-08-05T01:49:41;7.50;;;4.80;;
62696;SDS011;48761;42.680;23.312;2022-08-05T01:52:09;10.15;;;5.35;;
62696;SDS011;48761;42.680;23.312;2022-08-05T01:54:38;9.18;;;5.30;;
62696;SDS011;48761;42.680;23.312;2022-08-05T01:57:11;7.10;;;5.68;;
62696;SDS011;48761;42.680;23.312;2022-08-05T01:59:43;7.82;;;5.70;;
62696;SDS011;48761;42.680;23.312;2022-08-05T02:02:12;8.18;;;5.38;;
62696;SDS011;48761;42.680;23.312;2022-08-05T02:04:39;6.03;;;5.07;;
62696;SDS011;48761;42.680;23.312;2022-08-05T02:07:07;9.23;;;5.22;;
62696;SDS011;48761;42.680;23.312;2022-08-05T02:09:34;9.02;;;5.13;;
62696;SDS011;48761;42.680;23.312;2022-08-05T02:12:02;5.97;;;4.95;;
62696;SDS011;48761;42.680;23.312;2022-08-05T02:14:30;8.73;;;5.55;;
62696;SDS011;48761;42.680;23.312;2022-08-05T02:17:10;8.98;;;5.35;;
62696;SDS011;48761;42.680;23.312;2022-08-05T02:19:43;7.72;;;5.15;;
62696;SDS011;48761;42.680;23.312;2022-08-05T02:22:16;6.90;;;5.03;;
62696;SDS011;48761;42.680;23.312;2022-08-05T02:24:47;8.57;;;5.30;;
62696;SDS011;48761;42.680;23.312;2022-08-05T02:27:16;7.85;;;5.63;;
62696;SDS011;48761;42.680;23.312;2022-08-05T02:29:44;6.72;;;5.30;;
62696;SDS011;48761;42.680;23.312;2022-08-05T02:32:12;6.30;;;5.13;;
62696;SDS011;48761;42.680;23.312;2022-08-05T02:34:41;10.75;;;5.80;;
62696;SDS011;48761;42.680;23.312;2022-08-05T02:37:09;7.55;;;5.10;;
62696;SDS011;48761;42.680;23.312;2022-08-05T02:39:37;10.32;;;5.35;;
62696;SDS011;48761;42.680;23.312;2022-08-05T02:42:04;6.63;;;4.82;;
62696;SDS011;48761;42.680;23.312;2022-08-05T02:44:31;7.20;;;5.18;;
62696;SDS011;48761;42.680;23.312;2022-08-05T02:47:00;9.68;;;5.68;;
62696;SDS011;48761;42.680;23.312;2022-08-05T02:49:31;7.45;;;5.43;;
62696;SDS011;48761;42.680;23.312;2022-08-05T02:52:00;7.32;;;5.63;;
62696;SDS011;48761;42.680;23.312;2022-08-05T02:54:27;7.47;;;5.65;;
62696;SDS011;48761;42.680;23.312;2022-08-05T02:56:53;6.88;;;5.25;;
62696;SDS011;48761;42.680;23.312;2022-08-05T02:59:20;7.43;;;5.65;;
62696;SDS011;48761;42.680;23.312;2022-08-05T03:01:48;9.55;;;5.22;;
62696;SDS011;48761;42.680;23.312;2022-08-05T03:04:16;6.20;;;5.22;;
62696;SDS011;48761;42.680;23.312;2022-08-05T03:06:43;8.60;;;5.78;;
62696;SDS011;48761;42.680;23.312;2022-08-05T03:09:12;7.05;;;5.53;;
62696;SDS011;48761;42.680;23.312;2022-08-05T03:11:40;7.65;;;5.88;;
62696;SDS011;48761;42.680;23.312;2022-08-05T03:14:07;6.45;;;5.40;;
62696;SDS011;48761;42.680;23.312;2022-08-05T03:16:33;6.28;;;5.32;;
62696;SDS011;48761;42.680;23.312;2022-08-05T03:18:59;8.52;;;5.85;;
62696;SDS011;48761;42.680;23.312;2022-08-05T03:21:26;11.18;;;5.75;;
62696;SDS011;48761;42.680;23.312;2022-08-05T03:23:52;7.70;;;5.30;;
62696;SDS011;48761;42.680;23.312;2022-08-05T03:26:19;7.72;;;5.80;;
62696;SDS011;48761;42.680;23.312;2022-08-05T03:28:45;8.90;;;5.90;;
62696;SDS011;48761;42.680;23.312;2022-08-05T03:31:11;12.65;;;6.20;;
62696;SDS011;48761;42.680;23.312;2022-08-05T03:33:38;12.90;;;5.60;;
62696;SDS011;48761;42.680;23.312;2022-08-05T03:36:05;8.73;;;6.20;;
62696;SDS011;48761;42.680;23.312;2022-08-05T03:38:31;11.57;;;5.70;;
62696;SDS011;48761;42.680;23.312;2022-08-05T03:40:57;11.35;;;6.47;;
62696;SDS011;48761;42.680;23.312;2022-08-05T03:43:23;10.32;;;6.25;;
62696;SDS011;48761;42.680;23.312;2022-08-05T03:45:50;6.95;;;5.80;;
62696;SDS011;48761;42.680;23.312;2022-08-05T03:48:19;10.60;;;5.90;;
62696;SDS011;48761;42.680;23.312;2022-08-05T03:50:54;7.00;;;5.53;;
62696;SDS011;48761;42.680;23.312;2022-08-05T03:56:38;9.85;;;5.60;;
62696;SDS011;48761;42.680;23.312;2022-08-05T03:59:12;9.88;;;6.32;;
62696;SDS011;48761;42.680;23.312;2022-08-05T04:01:45;7.05;;;5.72;;
62696;SDS011;48761;42.680;23.312;2022-08-05T04:04:15;10.30;;;6.03;;
62696;SDS011;48761;42.680;23.312;2022-08-05T04:06:41;6.85;;;5.47;;
62696;SDS011;48761;42.680;23.312;2022-08-05T04:09:08;11.70;;;5.50;;
62696;SDS011;48761;42.680;23.312;2022-08-05T04:11:35;9.85;;;5.88;;
62696;SDS011;48761;42.680;23.312;2022-08-05T04:14:01;7.10;;;5.70;;
62696;SDS011;48761;42.680;23.312;2022-08-05T04:16:28;10.73;;;6.00;;
62696;SDS011;48761;42.680;23.312;2022-08-05T04:18:54;7.38;;;5.80;;
62696;SDS011;48761;42.680;23.312;2022-08-05T04:21:20;9.23;;;6.07;;
62696;SDS011;48761;42.680;23.312;2022-08-05T04:23:46;6.85;;;5.35;;
62696;SDS011;48761;42.680;23.312;2022-08-05T04:26:12;7.75;;;5.75;;
62696;SDS011;48761;42.680;23.312;2022-08-05T04:28:39;8.35;;;6.30;;
62696;SDS011;48761;42.680;23.312;2022-08-05T04:31:05;11.57;;;6.72;;
62696;SDS011;48761;42.680;23.312;2022-08-05T04:33:31;9.80;;;6.15;;
62696;SDS011;48761;42.680;23.312;2022-08-05T04:35:57;8.30;;;5.80;;
62696;SDS011;48761;42.680;23.312;2022-08-05T04:38:23;11.65;;;6.15;;
62696;SDS011;48761;42.680;23.312;2022-08-05T04:40:49;10.70;;;6.03;;
62696;SDS011;48761;42.680;23.312;2022-08-05T04:43:15;12.90;;;6.78;;
62696;SDS011;48761;42.680;23.312;2022-08-05T04:45:41;8.65;;;6.13;;
62696;SDS011;48761;42.680;23.312;2022-08-05T04:48:08;17.55;;;6.57;;
62696;SDS011;48761;42.680;23.312;2022-08-05T04:50:45;8.02;;;6.13;;
62696;SDS011;48761;42.680;23.312;2022-08-05T04:53:13;10.07;;;6.00;;
62696;SDS011;48761;42.680;23.312;2022-08-05T04:55:40;9.30;;;5.70;;
62696;SDS011;48761;42.680;23.312;2022-08-05T04:58:12;9.18;;;5.72;;
62696;SDS011;48761;42.680;23.312;2022-08-05T05:00:39;7.07;;;5.18;;
62696;SDS011;48761;42.680;23.312;2022-08-05T05:03:06;12.23;;;5.57;;
62696;SDS011;48761;42.680;23.312;2022-08-05T05:05:33;10.55;;;5.90;;
62696;SDS011;48761;42.680;23.312;2022-08-05T05:08:00;11.07;;;5.68;;
62696;SDS011;48761;42.680;23.312;2022-08-05T05:10:27;9.73;;;5.78;;
62696;SDS011;48761;42.680;23.312;2022-08-05T05:12:53;9.90;;;6.00;;
62696;SDS011;48761;42.680;23.312;2022-08-05T05:15:19;10.20;;;5.90;;
62696;SDS011;48761;42.680;23.312;2022-08-05T05:17:45;8.55;;;5.72;;
62696;SDS011;48761;42.680;23.312;2022-08-05T05:20:12;11.75;;;6.45;;
62696;SDS011;48761;42.680;23.312;2022-08-05T05:22:38;11.93;;;6.10;;
62696;SDS011;48761;42.680;23.312;2022-08-05T05:25:04;17.55;;;6.72;;
62696;SDS011;48761;42.680;23.312;2022-08-05T05:27:32;13.57;;;6.45;;
62696;SDS011;48761;42.680;23.312;2022-08-05T05:29:59;10.02;;;5.72;;
62696;SDS011;48761;42.680;23.312;2022-08-05T05:32:24;11.85;;;6.47;;
62696;SDS011;48761;42.680;23.312;2022-08-05T05:34:50;8.02;;;5.82;;
62696;SDS011;48761;42.680;23.312;2022-08-05T05:37:17;10.48;;;6.55;;
62696;SDS011;48761;42.680;23.312;2022-08-05T05:39:43;24.02;;;5.90;;
62696;SDS011;48761;42.680;23.312;2022-08-05T05:42:08;9.20;;;5.97;;
62696;SDS011;48761;42.680;23.312;2022-08-05T05:44:34;9.48;;;5.75;;
62696;SDS011;48761;42.680;23.312;2022-08-05T05:47:00;9.15;;;6.13;;
62696;SDS011;48761;42.680;23.312;2022-08-05T05:49:26;10.43;;;6.05;;
62696;SDS011;48761;42.680;23.312;2022-08-05T05:51:53;11.13;;;6.63;;
62696;SDS011;48761;42.680;23.312;2022-08-05T05:54:19;11.38;;;5.22;;
62696;SDS011;48761;42.680;23.312;2022-08-05T05:56:46;14.57;;;5.45;;
62696;SDS011;48761;42.680;23.312;2022-08-05T05:59:12;17.10;;;5.00;;
62696;SDS011;48761;42.680;23.312;2022-08-05T06:01:38;12.40;;;5.05;;
62696;SDS011;48761;42.680;23.312;2022-08-05T06:04:09;12.63;;;5.00;;
62696;SDS011;48761;42.680;23.312;2022-08-05T06:06:36;8.85;;;4.93;;
62696;SDS011;48761;42.680;23.312;2022-08-05T06:09:03;11.20;;;5.82;;
62696;SDS011;48761;42.680;23.312;2022-08-05T06:11:30;14.60;;;5.95;;
62696;SDS011;48761;42.680;23.312;2022-08-05T06:13:56;9.20;;;6.20;;
62696;SDS011;48761;42.680;23.312;2022-08-05T06:16:22;9.20;;;5.60;;
62696;SDS011;48761;42.680;23.312;2022-08-05T06:18:48;6.90;;;5.50;;
62696;SDS011;48761;42.680;23.312;2022-08-05T06:21:14;6.82;;;5.72;;
62696;SDS011;48761;42.680;23.312;2022-08-05T06:23:40;12.65;;;6.10;;
62696;SDS011;48761;42.680;23.312;2022-08-05T06:26:06;10.65;;;6.40;;
62696;SDS011;48761;42.680;23.312;2022-08-05T06:28:32;10.15;;;6.50;;
62696;SDS011;48761;42.680;23.312;2022-08-05T06:30:57;12.05;;;7.05;;
62696;SDS011;48761;42.680;23.312;2022-08-05T06:33:23;15.82;;;7.80;;
62696;SDS011;48761;42.680;23.312;2022-08-05T06:35:50;13.52;;;7.00;;
62696;SDS011;48761;42.680;23.312;2022-08-05T06:38:16;14.45;;;6.47;;
62696;SDS011;48761;42.680;23.312;2022-08-05T06:40:42;10.38;;;7.07;;
62696;SDS011;48761;42.680;23.312;2022-08-05T06:43:07;10.50;;;6.32;;
62696;SDS011;48761;42.680;23.312;2022-08-05T06:45:33;12.98;;;6.82;;
62696;SDS011;48761;42.680;23.312;2022-08-05T06:48:00;11.95;;;6.45;;
62696;SDS011;48761;42.680;23.312;2022-08-05T06:50:26;11.48;;;6.72;;
62696;SDS011;48761;42.680;23.312;2022-08-05T06:52:52;11.18;;;6.65;;
62696;SDS011;48761;42.680;23.312;2022-08-05T06:55:18;7.82;;;5.40;;
62696;SDS011;48761;42.680;23.312;2022-08-05T06:57:44;12.15;;;7.00;;
62696;SDS011;48761;42.680;23.312;2022-08-05T07:00:10;8.95;;;6.15;;
62696;SDS011;48761;42.680;23.312;2022-08-05T07:02:45;7.35;;;5.53;;
62696;SDS011;48761;42.680;23.312;2022-08-05T07:05:12;6.95;;;5.25;;
62696;SDS011;48761;42.680;23.312;2022-08-05T07:07:39;10.57;;;5.05;;
62696;SDS011;48761;42.680;23.312;2022-08-05T07:10:06;10.80;;;5.03;;
62696;SDS011;48761;42.680;23.312;2022-08-05T07:12:33;6.93;;;5.00;;
62696;SDS011;48761;42.680;23.312;2022-08-05T07:15:00;8.43;;;4.60;;
62696;SDS011;48761;42.680;23.312;2022-08-05T07:17:26;7.60;;;4.78;;
62696;SDS011;48761;42.680;23.312;2022-08-05T07:19:51;6.78;;;4.85;;
62696;SDS011;48761;42.680;23.312;2022-08-05T07:22:17;9.18;;;4.75;;
62696;SDS011;48761;42.680;23.312;2022-08-05T07:24:43;7.53;;;4.70;;
62696;SDS011;48761;42.680;23.312;2022-08-05T07:27:09;7.18;;;4.88;;
62696;SDS011;48761;42.680;23.312;2022-08-05T07:29:35;8.60;;;5.40;;
62696;SDS011;48761;42.680;23.312;2022-08-05T07:32:01;5.97;;;4.53;;
62696;SDS011;48761;42.680;23.312;2022-08-05T07:34:27;5.03;;;4.53;;
62696;SDS011;48761;42.680;23.312;2022-08-05T07:36:52;7.43;;;4.28;;
62696;SDS011;48761;42.680;23.312;2022-08-05T07:39:18;9.00;;;4.50;;
62696;SDS011;48761;42.680;23.312;2022-08-05T07:41:44;6.43;;;4.72;;
62696;SDS011;48761;42.680;23.312;2022-08-05T07:44:10;19.70;;;5.68;;
62696;SDS011;48761;42.680;23.312;2022-08-05T07:46:36;31.40;;;6.00;;
62696;SDS011;48761;42.680;23.312;2022-08-05T07:49:02;23.73;;;4.70;;
62696;SDS011;48761;42.680;23.312;2022-08-05T07:51:29;48.20;;;7.50;;
62696;SDS011;48761;42.680;23.312;2022-08-05T07:53:55;39.85;;;6.45;;
62696;SDS011;48761;42.680;23.312;2022-08-05T07:56:21;23.52;;;6.20;;
62696;SDS011;48761;42.680;23.312;2022-08-05T07:58:46;21.17;;;6.00;;
62696;SDS011;48761;42.680;23.312;2022-08-05T08:01:12;24.05;;;5.53;;
62696;SDS011;48761;42.680;23.312;2022-08-05T08:03:38;18.17;;;5.45;;
62696;SDS011;48761;42.680;23.312;2022-08-05T08:06:04;16.40;;;5.50;;
62696;SDS011;48761;42.680;23.312;2022-08-05T08:08:30;25.45;;;5.80;;
62696;SDS011;48761;42.680;23.312;2022-08-05T08:10:56;17.55;;;4.78;;
62696;SDS011;48761;42.680;23.312;2022-08-05T08:13:22;12.23;;;5.00;;
62696;SDS011;48761;42.680;23.312;2022-08-05T08:15:48;12.45;;;5.10;;
62696;SDS011;48761;42.680;23.312;2022-08-05T08:18:13;23.38;;;5.32;;
62696;SDS011;48761;42.680;23.312;2022-08-05T08:20:39;20.73;;;5.80;;
62696;SDS011;48761;42.680;23.312;2022-08-05T08:23:05;13.13;;;4.57;;
62696;SDS011;48761;42.680;23.312;2022-08-05T08:25:31;12.00;;;4.95;;
62696;SDS011;48761;42.680;23.312;2022-08-05T08:27:57;8.10;;;4.60;;
62696;SDS011;48761;42.680;23.312;2022-08-05T08:30:23;13.43;;;4.90;;
62696;SDS011;48761;42.680;23.312;2022-08-05T08:32:49;21.67;;;5.00;;
62696;SDS011;48761;42.680;23.312;2022-08-05T08:35:15;13.77;;;4.70;;
62696;SDS011;48761;42.680;23.312;2022-08-05T08:37:41;9.90;;;4.70;;
62696;SDS011;48761;42.680;23.312;2022-08-05T08:40:07;17.83;;;4.32;;
62696;SDS011;48761;42.680;23.312;2022-08-05T08:42:33;8.13;;;4.30;;
62696;SDS011;48761;42.680;23.312;2022-08-05T08:45:00;13.32;;;4.68;;
62696;SDS011;48761;42.680;23.312;2022-08-05T08:47:27;14.07;;;4.78;;
62696;SDS011;48761;42.680;23.312;2022-08-05T08:49:56;12.20;;;4.75;;
62696;SDS011;48761;42.680;23.312;2022-08-05T08:52:23;7.32;;;4.20;;
62696;SDS011;48761;42.680;23.312;2022-08-05T08:54:53;13.50;;;4.30;;
62696;SDS011;48761;42.680;23.312;2022-08-05T08:57:20;8.05;;;4.28;;
62696;SDS011;48761;42.680;23.312;2022-08-05T08:59:47;13.20;;;4.70;;
62696;SDS011;48761;42.680;23.312;2022-08-05T09:02:14;10.60;;;4.30;;
62696;SDS011;48761;42.680;23.312;2022-08-05T09:04:40;10.73;;;4.30;;
62696;SDS011;48761;42.680;23.312;2022-08-05T09:07:06;9.68;;;4.20;;
62696;SDS011;48761;42.680;23.312;2022-08-05T09:09:33;7.72;;;4.00;;
62696;SDS011;48761;42.680;23.312;2022-08-05T09:12:00;8.55;;;4.30;;
62696;SDS011;48761;42.680;23.312;2022-08-05T09:14:28;11.75;;;4.13;;
62696;SDS011;48761;42.680;23.312;2022-08-05T09:16:56;9.38;;;4.20;;
62696;SDS011;48761;42.680;23.312;2022-08-05T09:19:22;9.50;;;3.83;;
62696;SDS011;48761;42.680;23.312;2022-08-05T09:21:48;6.90;;;3.70;;
62696;SDS011;48761;42.680;23.312;2022-08-05T09:24:14;8.27;;;3.85;;
62696;SDS011;48761;42.680;23.312;2022-08-05T09:26:40;6.30;;;3.60;;
62696;SDS011;48761;42.680;23.312;2022-08-05T09:29:06;11.57;;;3.90;;
62696;SDS011;48761;42.680;23.312;2022-08-05T09:31:33;7.78;;;4.05;;
62696;SDS011;48761;42.680;23.312;2022-08-05T09:34:00;9.30;;;4.20;;
62696;SDS011;48761;42.680;23.312;2022-08-05T09:36:45;11.32;;;4.10;;
62696;SDS011;48761;42.680;23.312;2022-08-05T09:39:12;11.05;;;3.50;;
62696;SDS011;48761;42.680;23.312;2022-08-05T09:41:57;6.78;;;3.88;;
62696;SDS011;48761;42.680;23.312;2022-08-05T09:44:34;7.10;;;3.75;;
62696;SDS011;48761;42.680;23.312;2022-08-05T09:49:44;8.68;;;3.88;;
62696;SDS011;48761;42.680;23.312;2022-08-05T09:52:46;10.77;;;3.90;;
62696;SDS011;48761;42.680;23.312;2022-08-05T09:55:05;7.18;;;3.55;;
62696;SDS011;48761;42.680;23.312;2022-08-05T10:00:06;6.05;;;3.80;;
62696;SDS011;48761;42.680;23.312;2022-08-05T10:05:04;8.75;;;3.72;;
62696;SDS011;48761;42.680;23.312;2022-08-05T10:08:09;10.75;;;3.97;;
62696;SDS011;48761;42.680;23.312;2022-08-05T10:12:57;24.77;;;5.05;;
62696;SDS011;48761;42.680;23.312;2022-08-05T10:15:26;11.77;;;4.07;;
62696;SDS011;48761;42.680;23.312;2022-08-05T10:20:47;14.07;;;4.28;;
62696;SDS011;48761;42.680;23.312;2022-08-05T10:23:26;11.88;;;3.58;;
62696;SDS011;48761;42.680;23.312;2022-08-05T10:25:53;8.50;;;3.90;;
62696;SDS011;48761;42.680;23.312;2022-08-05T10:28:21;14.48;;;3.60;;
62696;SDS011;48761;42.680;23.312;2022-08-05T10:30:47;11.57;;;3.78;;
62696;SDS011;48761;42.680;23.312;2022-08-05T10:33:13;9.40;;;3.42;;
62696;SDS011;48761;42.680;23.312;2022-08-05T10:35:39;9.40;;;4.03;;
62696;SDS011;48761;42.680;23.312;2022-08-05T10:38:05;11.65;;;3.67;;
62696;SDS011;48761;42.680;23.312;2022-08-05T10:43:08;14.25;;;3.95;;
62696;SDS011;48761;42.680;23.312;2022-08-05T10:45:42;6.75;;;3.97;;
62696;SDS011;48761;42.680;23.312;2022-08-05T10:48:33;13.60;;;4.18;;
62696;SDS011;48761;42.680;23.312;2022-08-05T10:54:11;16.27;;;3.83;;
62696;SDS011;48761;42.680;23.312;2022-08-05T10:56:21;13.57;;;4.05;;
62696;SDS011;48761;42.680;23.312;2022-08-05T11:01:17;13.05;;;3.95;;
62696;SDS011;48761;42.680;23.312;2022-08-05T11:03:59;16.95;;;3.50;;
62696;SDS011;48761;42.680;23.312;2022-08-05T11:09:21;21.42;;;4.50;;
62696;SDS011;48761;42.680;23.312;2022-08-05T11:11:48;17.83;;;4.00;;
62696;SDS011;48761;42.680;23.312;2022-08-05T11:19:54;16.85;;;4.15;;
62696;SDS011;48761;42.680;23.312;2022-08-05T11:25:25;15.88;;;4.38;;
62696;SDS011;48761;42.680;23.312;2022-08-05T11:28:41;13.95;;;3.85;;
62696;SDS011;48761;42.680;23.312;2022-08-05T11:36:03;17.02;;;3.88;;
62696;SDS011;48761;42.680;23.312;2022-08-05T11:41:16;16.23;;;4.07;;
62696;SDS011;48761;42.680;23.312;2022-08-05T11:43:58;8.68;;;3.55;;
62696;SDS011;48761;42.680;23.312;2022-08-05T11:46:29;9.63;;;3.60;;
62696;SDS011;48761;42.680;23.312;2022-08-05T11:48:57;8.77;;;3.92;;
62696;SDS011;48761;42.680;23.312;2022-08-05T11:51:25;12.27;;;3.60;;
62696;SDS011;48761;42.680;23.312;2022-08-05T11:53:52;10.05;;;3.22;;
62696;SDS011;48761;42.680;23.312;2022-08-05T11:56:19;7.60;;;3.35;;
62696;SDS011;48761;42.680;23.312;2022-08-05T11:58:45;8.25;;;3.28;;
62696;SDS011;48761;42.680;23.312;2022-08-05T12:01:13;8.07;;;3.40;;
62696;SDS011;48761;42.680;23.312;2022-08-05T12:03:48;9.20;;;3.03;;
62696;SDS011;48761;42.680;23.312;2022-08-05T12:06:16;10.63;;;3.35;;
62696;SDS011;48761;42.680;23.312;2022-08-05T12:08:50;8.40;;;3.28;;
62696;SDS011;48761;42.680;23.312;2022-08-05T12:11:21;7.38;;;3.50;;
62696;SDS011;48761;42.680;23.312;2022-08-05T12:16:18;8.57;;;3.30;;
62696;SDS011;48761;42.680;23.312;2022-08-05T12:18:44;10.93;;;3.58;;
62696;SDS011;48761;42.680;23.312;2022-08-05T12:21:11;12.07;;;3.03;;
62696;SDS011;48761;42.680;23.312;2022-08-05T12:23:39;10.07;;;3.35;;
62696;SDS011;48761;42.680;23.312;2022-08-05T12:26:15;6.68;;;3.08;;
62696;SDS011;48761;42.680;23.312;2022-08-05T12:28:41;5.95;;;3.28;;
62696;SDS011;48761;42.680;23.312;2022-08-05T12:31:07;5.03;;;2.63;;
62696;SDS011;48761;42.680;23.312;2022-08-05T12:33:33;5.15;;;2.92;;
62696;SDS011;48761;42.680;23.312;2022-08-05T12:35:59;8.82;;;3.00;;
62696;SDS011;48761;42.680;23.312;2022-08-05T12:38:26;11.18;;;3.38;;
62696;SDS011;48761;42.680;23.312;2022-08-05T12:40:54;8.10;;;3.20;;
62696;SDS011;48761;42.680;23.312;2022-08-05T12:43:21;8.38;;;3.40;;
62696;SDS011;48761;42.680;23.312;2022-08-05T12:45:54;7.13;;;3.10;;
62696;SDS011;48761;42.680;23.312;2022-08-05T12:48:21;6.68;;;2.92;;
62696;SDS011;48761;42.680;23.312;2022-08-05T12:53:40;4.78;;;2.75;;
62696;SDS011;48761;42.680;23.312;2022-08-05T12:56:16;4.85;;;2.70;;
62696;SDS011;48761;42.680;23.312;2022-08-05T12:58:45;4.65;;;2.70;;
62696;SDS011;48761;42.680;23.312;2022-08-05T13:04:27;6.47;;;3.08;;
62696;SDS011;48761;42.680;23.312;2022-08-05T13:07:02;6.25;;;2.95;;
62696;SDS011;48761;42.680;23.312;2022-08-05T13:09:32;4.88;;;2.65;;
62696;SDS011;48761;42.680;23.312;2022-08-05T13:17:15;6.47;;;2.80;;
62696;SDS011;48761;42.680;23.312;2022-08-05T13:20:08;6.15;;;2.92;;
62696;SDS011;48761;42.680;23.312;2022-08-05T13:22:36;5.03;;;2.58;;
62696;SDS011;48761;42.680;23.312;2022-08-05T13:25:08;5.05;;;2.88;;
62696;SDS011;48761;42.680;23.312;2022-08-05T13:27:36;4.93;;;2.60;;
62696;SDS011;48761;42.680;23.312;2022-08-05T13:30:04;7.03;;;2.95;;
62696;SDS011;48761;42.680;23.312;2022-08-05T13:32:37;6.88;;;2.72;;
62696;SDS011;48761;42.680;23.312;2022-08-05T13:35:04;6.30;;;2.55;;
62696;SDS011;48761;42.680;23.312;2022-08-05T13:37:30;3.55;;;2.45;;
62696;SDS011;48761;42.680;23.312;2022-08-05T13:39:57;4.32;;;2.75;;
62696;SDS011;48761;42.680;23.312;2022-08-05T13:42:24;4.25;;;2.67;;
62696;SDS011;48761;42.680;23.312;2022-08-05T13:44:53;4.93;;;2.55;;
62696;SDS011;48761;42.680;23.312;2022-08-05T13:47:21;19.40;;;3.60;;
62696;SDS011;48761;42.680;23.312;2022-08-05T13:49:48;14.98;;;3.38;;
62696;SDS011;48761;42.680;23.312;2022-08-05T13:52:16;37.40;;;4.72;;
62696;SDS011;48761;42.680;23.312;2022-08-05T13:54:42;32.65;;;4.70;;
62696;SDS011;48761;42.680;23.312;2022-08-05T13:57:09;32.42;;;4.07;;
62696;SDS011;48761;42.680;23.312;2022-08-05T13:59:36;24.08;;;4.50;;
62696;SDS011;48761;42.680;23.312;2022-08-05T14:02:04;14.82;;;3.55;;
62696;SDS011;48761;42.680;23.312;2022-08-05T14:04:32;12.32;;;3.58;;
62696;SDS011;48761;42.680;23.312;2022-08-05T14:07:00;9.70;;;3.42;;
62696;SDS011;48761;42.680;23.312;2022-08-05T14:09:26;8.73;;;2.92;;
62696;SDS011;48761;42.680;23.312;2022-08-05T14:11:52;11.07;;;3.03;;
62696;SDS011;48761;42.680;23.312;2022-08-05T14:14:18;13.65;;;3.10;;
62696;SDS011;48761;42.680;23.312;2022-08-05T14:16:44;12.70;;;3.20;;
62696;SDS011;48761;42.680;23.312;2022-08-05T14:19:09;7.53;;;2.97;;
62696;SDS011;48761;42.680;23.312;2022-08-05T14:21:35;8.68;;;2.97;;
62696;SDS011;48761;42.680;23.312;2022-08-05T14:24:01;10.32;;;3.17;;
62696;SDS011;48761;42.680;23.312;2022-08-05T14:26:27;11.63;;;2.95;;
62696;SDS011;48761;42.680;23.312;2022-08-05T14:28:53;9.73;;;2.88;;
62696;SDS011;48761;42.680;23.312;2022-08-05T14:31:19;10.63;;;3.60;;
62696;SDS011;48761;42.680;23.312;2022-08-05T14:33:45;7.35;;;2.97;;
62696;SDS011;48761;42.680;23.312;2022-08-05T14:36:11;7.40;;;2.72;;
62696;SDS011;48761;42.680;23.312;2022-08-05T14:38:37;8.35;;;3.08;;
62696;SDS011;48761;42.680;23.312;2022-08-05T14:41:03;7.93;;;3.30;;
62696;SDS011;48761;42.680;23.312;2022-08-05T14:43:30;8.52;;;3.00;;
62696;SDS011;48761;42.680;23.312;2022-08-05T14:45:56;8.82;;;2.90;;
62696;SDS011;48761;42.680;23.312;2022-08-05T14:48:21;6.65;;;2.85;;
62696;SDS011;48761;42.680;23.312;2022-08-05T14:50:47;8.95;;;3.03;;
62696;SDS011;48761;42.680;23.312;2022-08-05T14:53:13;5.75;;;2.67;;
62696;SDS011;48761;42.680;23.312;2022-08-05T14:55:39;5.15;;;2.47;;
62696;SDS011;48761;42.680;23.312;2022-08-05T14:58:08;7.88;;;2.80;;
62696;SDS011;48761;42.680;23.312;2022-08-05T15:00:34;8.95;;;2.72;;
62696;SDS011;48761;42.680;23.312;2022-08-05T15:03:02;5.90;;;2.90;;
62696;SDS011;48761;42.680;23.312;2022-08-05T15:05:29;4.20;;;2.50;;
62696;SDS011;48761;42.680;23.312;2022-08-05T15:07:54;7.90;;;2.80;;
62696;SDS011;48761;42.680;23.312;2022-08-05T15:10:20;7.75;;;2.80;;
62696;SDS011;48761;42.680;23.312;2022-08-05T15:12:46;8.05;;;3.00;;
62696;SDS011;48761;42.680;23.312;2022-08-05T15:15:12;6.00;;;2.97;;
62696;SDS011;48761;42.680;23.312;2022-08-05T15:17:38;7.40;;;2.88;;
62696;SDS011;48761;42.680;23.312;2022-08-05T15:20:04;5.05;;;2.50;;
62696;SDS011;48761;42.680;23.312;2022-08-05T15:22:31;4.70;;;2.88;;
62696;SDS011;48761;42.680;23.312;2022-08-05T15:24:56;6.90;;;2.60;;
62696;SDS011;48761;42.680;23.312;2022-08-05T15:27:22;6.65;;;2.80;;
62696;SDS011;48761;42.680;23.312;2022-08-05T15:29:48;5.20;;;2.33;;
62696;SDS011;48761;42.680;23.312;2022-08-05T15:32:14;5.53;;;2.67;;
62696;SDS011;48761;42.680;23.312;2022-08-05T15:34:40;4.50;;;2.60;;
62696;SDS011;48761;42.680;23.312;2022-08-05T15:37:06;7.57;;;2.38;;
62696;SDS011;48761;42.680;23.312;2022-08-05T15:39:32;3.70;;;2.40;;
62696;SDS011;48761;42.680;23.312;2022-08-05T15:41:58;4.38;;;2.83;;